EDT,Max TemperatureF,Mean TemperatureF,Min TemperatureF,Max Dew PointF,MeanDew PointF,Min DewpointF,Max Humidity, Mean Humidity, Min Humidity, Max Sea Level PressureIn, Mean Sea Level PressureIn, Min Sea Level PressureIn, Max VisibilityMiles, Mean VisibilityMiles, Min VisibilityMiles, Max Wind SpeedMPH, Mean Wind SpeedMPH, Max Gust SpeedMPH,PrecipitationIn, CloudCover, Events, WindDirDegrees
2013-5-1,80,66,53,58,54,51,94,64,39,30.24,30.17,30.05,10,10,7,14,7,21,0.00,0,,143
2013-5-2,78,66,55,55,51,46,82,57,37,30.25,30.20,30.14,10,10,10,17,8,26,0.00,0,,133
2013-5-3,77,68,58,53,44,32,60,44,22,30.14,30.10,30.06,10,10,10,18,9,24,0.00,1,,120
2013-5-4,70,62,55,47,41,36,68,46,29,30.12,30.09,30.06,10,10,10,16,10,23,0.00,0,,106
2013-5-5,72,62,51,45,37,28,69,43,21,30.11,30.07,30.04,10,10,10,16,7,21,0.00,0,,95
2013-5-6,74,58,43,47,42,36,86,52,34,30.07,30.03,29.98,10,10,4,10,4,10,0.00,0,,97
2013-5-7,75,61,47,53,46,41,85,56,34,30.07,30.03,30.00,10,10,10,15,4,23,0.00,1,,101
2013-5-8,79,64,49,52,47,42,95,56,27,30.04,30.00,29.94,10,10,5,10,2,16,0.00,2,,11
2013-5-9,80,66,53,54,50,46,93,57,31,29.98,29.95,29.90,10,10,10,10,3,,0.00,3,,234
2013-5-10,67,54,41,61,50,41,99,94,60,29.92,29.83,29.76,10,7,2,12,5,20,0.00,8,Rain,7
2013-5-11,61,49,37,48,42,33,99,83,52,29.89,29.84,29.73,10,8,2,25,8,32,0.00,7,Rain,278
2013-5-12,47,40,31,35,30,25,93,68,47,30.08,29.96,29.87,10,10,10,24,11,34,0.00,5,,282
2013-5-13,53,40,27,29,25,21,95,58,30,30.17,30.12,30.08,10,10,10,15,4,23,0.00,1,,281
2013-5-14,77,60,42,52,39,25,68,49,35,30.08,29.89,29.71,10,10,4,15,6,20,0.00,4,Rain,169
2013-5-15,79,68,56,57,49,43,80,49,28,29.82,29.71,29.59,10,10,10,20,10,30,0.00,0,Rain,265
2013-5-16,80,64,47,48,44,39,87,48,26,30.04,29.89,29.81,10,10,10,10,5,17,0.00,0,,302
2013-5-17,72,60,47,46,42,39,77,52,35,30.15,30.11,30.05,10,10,7,13,6,18,0.00,3,,75
2013-5-18,80,68,55,49,44,39,67,45,28,30.15,30.10,30.04,10,10,10,16,7,20,0.00,3,,104
2013-5-19,85,70,55,62,53,45,74,54,36,30.05,29.98,29.89,10,10,10,12,4,16,0.00,1,,144
2013-5-20,89,76,63,68,63,60,94,69,39,29.94,29.87,29.78,10,10,5,18,7,24,0.00,2,,170
2013-5-21,84,75,66,66,61,56,92,62,37,29.83,29.78,29.73,10,10,5,15,7,34,0.00,2,Rain,207
2013-5-22,79,70,61,66,62,56,96,78,46,29.76,29.70,29.63,10,10,7,20,6,28,0.00,5,Rain,205
2013-5-23,61,52,43,60,51,42,100,96,89,30.16,29.88,29.71,10,6,1,13,6,22,0.00,7,Rain,335
2013-5-24,54,46,38,44,37,34,97,74,51,30.36,30.29,30.16,10,10,10,12,5,17,0.00,4,,344
2013-5-25,62,50,37,41,36,31,98,64,36,30.40,30.34,30.29,10,10,10,8,2,,0.00,0,,58
2013-5-26,66,52,37,43,36,29,99,56,28,30.35,30.30,30.23,10,10,7,9,2,,0.00,0,,52
2013-5-27,61,52,43,51,42,32,99,72,38,30.26,30.16,30.00,10,8,2,15,6,21,0.00,4,Rain,126
2013-5-28,73,62,51,71,61,51,100,96,84,29.99,29.89,29.80,10,5,1,12,7,16,0.00,7,Rain,147
2013-5-29,80,72,65,69,65,61,94,78,59,30.01,29.93,29.79,10,10,7,16,8,33,0.00,4,Rain,231
2013-5-30,85,76,66,73,66,61,94,74,50,30.06,30.02,29.97,10,10,3,15,6,23,0.00,1,Rain,184
2013-5-31,80,74,69,70,67,65,93,79,64,30.01,29.93,29.83,10,10,5,20,9,24,0.00,3,Rain,187